sensor_id;sensor_type;location;lat;lon;timestamp;P1;durP1;ratioP1;P2;durP2;ratioP2
11319;SDS011;5715;48.234;14.320;2023-12-20T00:01:19;7.70;;;3.33;;
11319;SDS011;5715;48.234;14.320;2023-12-20T00:04:06;6.30;;;3.20;;
11319;SDS011;5715;48.234;14.320;2023-12-20T00:06:54;2.63;;;2.47;;
11319;SDS011;5715;48.234;14.320;2023-12-20T00:09:42;5.27;;;3.33;;
11319;SDS011;5715;48.234;14.320;2023-12-20T00:12:29;3.53;;;3.23;;
11319;SDS011;5715;48.234;14.320;2023-12-20T00:15:17;4.63;;;3.97;;
11319;SDS011;5715;48.234;14.320;2023-12-20T00:18:05;6.87;;;4.77;;
11319;SDS011;5715;48.234;14.320;2023-12-20T00:20:52;6.13;;;5.13;;
11319;SDS011;5715;48.234;14.320;2023-12-20T00:23:40;6.17;;;4.50;;
11319;SDS011;5715;48.234;14.320;2023-12-20T00:26:27;5.83;;;4.70;;
11319;SDS011;5715;48.234;14.320;2023-12-20T00:29:15;5.23;;;4.10;;
11319;SDS011;5715;48.234;14.320;2023-12-20T00:32:03;5.10;;;4.60;;
11319;SDS011;5715;48.234;14.320;2023-12-20T00:34:51;4.77;;;4.33;;
11319;SDS011;5715;48.234;14.320;2023-12-20T00:37:38;8.60;;;5.03;;
11319;SDS011;5715;48.234;14.320;2023-12-20T00:40:26;6.33;;;4.47;;
11319;SDS011;5715;48.234;14.320;2023-12-20T00:43:14;8.10;;;5.23;;
11319;SDS011;5715;48.234;14.320;2023-12-20T00:46:01;5.27;;;4.83;;
11319;SDS011;5715;48.234;14.320;2023-12-20T00:48:49;8.63;;;4.90;;
11319;SDS011;5715;48.234;14.320;2023-12-20T00:51:37;6.07;;;4.67;;
11319;SDS011;5715;48.234;14.320;2023-12-20T00:54:25;3.93;;;3.47;;
11319;SDS011;5715;48.234;14.320;2023-12-20T00:57:12;6.07;;;4.17;;
11319;SDS011;5715;48.234;14.320;2023-12-20T01:00:00;3.93;;;3.63;;
11319;SDS011;5715;48.234;14.320;2023-12-20T01:02:48;4.13;;;3.73;;
11319;SDS011;5715;48.234;14.320;2023-12-20T01:05:37;5.43;;;4.93;;
11319;SDS011;5715;48.234;14.320;2023-12-20T01:08:25;3.73;;;3.47;;
11319;SDS011;5715;48.234;14.320;2023-12-20T01:11:13;8.73;;;5.17;;
11319;SDS011;5715;48.234;14.320;2023-12-20T01:14:00;6.20;;;4.07;;
11319;SDS011;5715;48.234;14.320;2023-12-20T01:16:48;4.10;;;3.40;;
11319;SDS011;5715;48.234;14.320;2023-12-20T01:19:35;11.63;;;4.30;;
11319;SDS011;5715;48.234;14.320;2023-12-20T01:22:24;3.37;;;3.07;;
11319;SDS011;5715;48.234;14.320;2023-12-20T01:25:11;6.40;;;5.57;;
11319;SDS011;5715;48.234;14.320;2023-12-20T01:27:59;6.50;;;4.47;;
11319;SDS011;5715;48.234;14.320;2023-12-20T01:30:47;4.63;;;3.90;;
11319;SDS011;5715;48.234;14.320;2023-12-20T01:33:35;5.30;;;4.47;;
11319;SDS011;5715;48.234;14.320;2023-12-20T01:36:22;5.13;;;3.90;;
11319;SDS011;5715;48.234;14.320;2023-12-20T01:39:10;5.03;;;4.10;;
11319;SDS011;5715;48.234;14.320;2023-12-20T01:42:10;4.70;;;4.20;;
11319;SDS011;5715;48.234;14.320;2023-12-20T01:44:58;5.67;;;4.77;;
11319;SDS011;5715;48.234;14.320;2023-12-20T01:47:46;9.50;;;5.10;;
11319;SDS011;5715;48.234;14.320;2023-12-20T01:50:35;4.87;;;4.40;;
11319;SDS011;5715;48.234;14.320;2023-12-20T01:53:24;6.33;;;4.23;;
11319;SDS011;5715;48.234;14.320;2023-12-20T01:56:14;4.50;;;4.10;;
11319;SDS011;5715;48.234;14.320;2023-12-20T01:59:03;5.73;;;4.33;;
11319;SDS011;5715;48.234;14.320;2023-12-20T02:01:51;5.47;;;4.00;;
11319;SDS011;5715;48.234;14.320;2023-12-20T02:04:39;11.27;;;4.80;;
11319;SDS011;5715;48.234;14.320;2023-12-20T02:07:27;3.93;;;3.60;;
11319;SDS011;5715;48.234;14.320;2023-12-20T02:10:18;4.90;;;4.47;;
11319;SDS011;5715;48.234;14.320;2023-12-20T02:13:05;8.23;;;5.83;;
11319;SDS011;5715;48.234;14.320;2023-12-20T02:15:54;14.10;;;5.23;;
11319;SDS011;5715;48.234;14.320;2023-12-20T02:18:42;5.87;;;4.63;;
11319;SDS011;5715;48.234;14.320;2023-12-20T02:21:31;4.43;;;4.03;;
11319;SDS011;5715;48.234;14.320;2023-12-20T02:24:20;4.30;;;3.77;;
11319;SDS011;5715;48.234;14.320;2023-12-20T02:27:08;5.80;;;4.53;;
11319;SDS011;5715;48.234;14.320;2023-12-20T02:29:56;20.00;;;4.63;;
11319;SDS011;5715;48.234;14.320;2023-12-20T02:32:43;5.83;;;3.97;;
11319;SDS011;5715;48.234;14.320;2023-12-20T02:35:31;6.37;;;5.77;;
11319;SDS011;5715;48.234;14.320;2023-12-20T02:38:19;5.03;;;4.57;;
11319;SDS011;5715;48.234;14.320;2023-12-20T02:41:06;6.07;;;5.23;;
11319;SDS011;5715;48.234;14.320;2023-12-20T02:43:54;4.70;;;4.10;;
11319;SDS011;5715;48.234;14.320;2023-12-20T02:46:42;6.33;;;3.93;;
11319;SDS011;5715;48.234;14.320;2023-12-20T02:49:29;6.17;;;5.37;;
11319;SDS011;5715;48.234;14.320;2023-12-20T02:52:17;6.07;;;3.60;;
11319;SDS011;5715;48.234;14.320;2023-12-20T02:55:05;4.97;;;4.17;;
11319;SDS011;5715;48.234;14.320;2023-12-20T02:57:53;6.03;;;4.17;;
11319;SDS011;5715;48.234;14.320;2023-12-20T03:00:41;20.70;;;4.03;;
11319;SDS011;5715;48.234;14.320;2023-12-20T03:03:28;4.40;;;4.00;;
11319;SDS011;5715;48.234;14.320;2023-12-20T03:06:17;5.67;;;3.83;;
11319;SDS011;5715;48.234;14.320;2023-12-20T03:09:06;3.47;;;3.17;;
11319;SDS011;5715;48.234;14.320;2023-12-20T03:11:54;5.07;;;4.00;;
11319;SDS011;5715;48.234;14.320;2023-12-20T03:14:41;4.47;;;4.17;;
11319;SDS011;5715;48.234;14.320;2023-12-20T03:17:31;3.83;;;3.20;;
11319;SDS011;5715;48.234;14.320;2023-12-20T03:20:18;2.87;;;2.67;;
11319;SDS011;5715;48.234;14.320;2023-12-20T03:23:06;5.57;;;3.47;;
11319;SDS011;5715;48.234;14.320;2023-12-20T03:25:53;3.73;;;2.97;;
11319;SDS011;5715;48.234;14.320;2023-12-20T03:28:41;3.87;;;3.57;;
11319;SDS011;5715;48.234;14.320;2023-12-20T03:31:29;5.03;;;3.63;;
11319;SDS011;5715;48.234;14.320;2023-12-20T03:34:16;4.43;;;4.00;;
11319;SDS011;5715;48.234;14.320;2023-12-20T03:37:04;4.93;;;4.53;;
11319;SDS011;5715;48.234;14.320;2023-12-20T03:39:51;4.90;;;4.40;;
11319;SDS011;5715;48.234;14.320;2023-12-20T03:42:39;5.87;;;3.47;;
11319;SDS011;5715;48.234;14.320;2023-12-20T03:45:27;9.27;;;4.73;;
11319;SDS011;5715;48.234;14.320;2023-12-20T03:48:14;5.60;;;5.07;;
11319;SDS011;5715;48.234;14.320;2023-12-20T03:51:02;5.40;;;4.83;;
11319;SDS011;5715;48.234;14.320;2023-12-20T03:53:50;7.83;;;4.07;;
11319;SDS011;5715;48.234;14.320;2023-12-20T03:56:37;8.17;;;5.43;;
11319;SDS011;5715;48.234;14.320;2023-12-20T03:59:25;5.50;;;4.93;;
11319;SDS011;5715;48.234;14.320;2023-12-20T04:02:12;5.07;;;4.27;;
11319;SDS011;5715;48.234;14.320;2023-12-20T04:05:00;6.07;;;3.80;;
11319;SDS011;5715;48.234;14.320;2023-12-20T04:07:48;6.30;;;4.67;;
11319;SDS011;5715;48.234;14.320;2023-12-20T04:10:37;5.60;;;4.40;;
11319;SDS011;5715;48.234;14.320;2023-12-20T04:13:25;5.27;;;4.43;;
11319;SDS011;5715;48.234;14.320;2023-12-20T04:16:12;4.83;;;4.30;;
11319;SDS011;5715;48.234;14.320;2023-12-20T04:19:00;4.03;;;3.73;;
11319;SDS011;5715;48.234;14.320;2023-12-20T04:21:48;7.77;;;4.50;;
11319;SDS011;5715;48.234;14.320;2023-12-20T04:24:35;9.13;;;4.70;;
11319;SDS011;5715;48.234;14.320;2023-12-20T04:27:23;4.13;;;3.77;;
11319;SDS011;5715;48.234;14.320;2023-12-20T04:30:11;5.57;;;4.50;;
11319;SDS011;5715;48.234;14.320;2023-12-20T04:32:59;3.63;;;3.30;;
11319;SDS011;5715;48.234;14.320;2023-12-20T04:35:46;4.20;;;3.63;;
11319;SDS011;5715;48.234;14.320;2023-12-20T04:38:34;4.80;;;3.50;;
11319;SDS011;5715;48.234;14.320;2023-12-20T04:41:22;6.40;;;4.77;;
11319;SDS011;5715;48.234;14.320;2023-12-20T04:44:09;5.67;;;4.10;;
11319;SDS011;5715;48.234;14.320;2023-12-20T04:46:57;3.90;;;3.20;;
11319;SDS011;5715;48.234;14.320;2023-12-20T04:49:44;6.77;;;3.97;;
11319;SDS011;5715;48.234;14.320;2023-12-20T04:52:32;7.00;;;4.57;;
11319;SDS011;5715;48.234;14.320;2023-12-20T04:55:20;3.80;;;3.50;;
11319;SDS011;5715;48.234;14.320;2023-12-20T04:58:08;5.57;;;3.67;;
11319;SDS011;5715;48.234;14.320;2023-12-20T05:00:55;7.90;;;4.87;;
11319;SDS011;5715;48.234;14.320;2023-12-20T05:03:43;5.90;;;4.43;;
11319;SDS011;5715;48.234;14.320;2023-12-20T05:06:31;7.10;;;5.23;;
11319;SDS011;5715;48.234;14.320;2023-12-20T05:09:18;10.67;;;4.10;;
11319;SDS011;5715;48.234;14.320;2023-12-20T05:12:06;10.83;;;4.40;;
11319;SDS011;5715;48.234;14.320;2023-12-20T05:14:54;4.40;;;3.33;;
11319;SDS011;5715;48.234;14.320;2023-12-20T05:17:42;4.87;;;4.07;;
11319;SDS011;5715;48.234;14.320;2023-12-20T05:20:30;3.83;;;3.40;;
11319;SDS011;5715;48.234;14.320;2023-12-20T05:23:17;6.73;;;4.63;;
11319;SDS011;5715;48.234;14.320;2023-12-20T05:26:07;6.40;;;4.53;;
11319;SDS011;5715;48.234;14.320;2023-12-20T05:28:54;3.83;;;3.47;;
11319;SDS011;5715;48.234;14.320;2023-12-20T05:31:42;12.43;;;4.37;;
11319;SDS011;5715;48.234;14.320;2023-12-20T05:34:30;21.73;;;6.40;;
11319;SDS011;5715;48.234;14.320;2023-12-20T05:37:18;5.30;;;4.20;;
11319;SDS011;5715;48.234;14.320;2023-12-20T05:40:06;20.70;;;5.93;;
11319;SDS011;5715;48.234;14.320;2023-12-20T05:42:57;6.77;;;3.57;;
11319;SDS011;5715;48.234;14.320;2023-12-20T05:45:45;3.73;;;3.43;;
11319;SDS011;5715;48.234;14.320;2023-12-20T05:48:32;4.83;;;2.63;;
11319;SDS011;5715;48.234;14.320;2023-12-20T05:51:20;2.43;;;2.23;;
11319;SDS011;5715;48.234;14.320;2023-12-20T05:54:09;16.93;;;3.27;;
11319;SDS011;5715;48.234;14.320;2023-12-20T05:56:56;2.63;;;2.43;;
11319;SDS011;5715;48.234;14.320;2023-12-20T05:59:44;3.63;;;3.33;;
11319;SDS011;5715;48.234;14.320;2023-12-20T06:02:31;3.37;;;2.80;;
11319;SDS011;5715;48.234;14.320;2023-12-20T06:05:19;3.20;;;2.30;;
11319;SDS011;5715;48.234;14.320;2023-12-20T06:08:07;5.70;;;5.20;;
11319;SDS011;5715;48.234;14.320;2023-12-20T06:10:54;5.00;;;4.40;;
11319;SDS011;5715;48.234;14.320;2023-12-20T06:13:42;9.57;;;3.90;;
11319;SDS011;5715;48.234;14.320;2023-12-20T06:16:30;3.97;;;3.10;;
11319;SDS011;5715;48.234;14.320;2023-12-20T06:19:17;4.97;;;3.03;;
11319;SDS011;5715;48.234;14.320;2023-12-20T06:22:05;3.27;;;2.80;;
11319;SDS011;5715;48.234;14.320;2023-12-20T06:24:53;6.40;;;4.33;;
11319;SDS011;5715;48.234;14.320;2023-12-20T06:27:40;4.23;;;3.90;;
11319;SDS011;5715;48.234;14.320;2023-12-20T06:30:28;29.73;;;4.33;;
11319;SDS011;5715;48.234;14.320;2023-12-20T06:33:16;4.47;;;3.93;;
11319;SDS011;5715;48.234;14.320;2023-12-20T06:36:05;9.80;;;5.13;;
11319;SDS011;5715;48.234;14.320;2023-12-20T06:38:53;3.10;;;2.80;;
11319;SDS011;5715;48.234;14.320;2023-12-20T06:41:41;3.40;;;3.03;;
11319;SDS011;5715;48.234;14.320;2023-12-20T06:44:29;3.43;;;3.23;;
11319;SDS011;5715;48.234;14.320;2023-12-20T06:47:18;4.73;;;2.13;;
11319;SDS011;5715;48.234;14.320;2023-12-20T06:50:06;3.53;;;2.63;;
11319;SDS011;5715;48.234;14.320;2023-12-20T06:52:55;4.80;;;3.60;;
11319;SDS011;5715;48.234;14.320;2023-12-20T06:55:43;3.90;;;3.53;;
11319;SDS011;5715;48.234;14.320;2023-12-20T06:58:31;3.30;;;2.77;;
11319;SDS011;5715;48.234;14.320;2023-12-20T07:01:18;5.63;;;4.07;;
11319;SDS011;5715;48.234;14.320;2023-12-20T07:04:06;4.17;;;3.33;;
11319;SDS011;5715;48.234;14.320;2023-12-20T07:06:54;3.47;;;2.83;;
11319;SDS011;5715;48.234;14.320;2023-12-20T07:09:44;6.90;;;3.03;;
11319;SDS011;5715;48.234;14.320;2023-12-20T07:12:32;3.93;;;2.33;;
11319;SDS011;5715;48.234;14.320;2023-12-20T07:15:19;3.83;;;3.33;;
11319;SDS011;5715;48.234;14.320;2023-12-20T07:18:09;4.70;;;3.03;;
11319;SDS011;5715;48.234;14.320;2023-12-20T07:20:56;2.40;;;2.17;;
11319;SDS011;5715;48.234;14.320;2023-12-20T07:23:44;3.63;;;3.20;;
11319;SDS011;5715;48.234;14.320;2023-12-20T07:26:32;12.43;;;3.03;;
11319;SDS011;5715;48.234;14.320;2023-12-20T07:29:20;4.87;;;3.33;;
11319;SDS011;5715;48.234;14.320;2023-12-20T07:32:08;2.53;;;2.33;;
11319;SDS011;5715;48.234;14.320;2023-12-20T07:34:55;8.70;;;2.77;;
11319;SDS011;5715;48.234;14.320;2023-12-20T07:37:43;18.07;;;3.07;;
11319;SDS011;5715;48.234;14.320;2023-12-20T07:40:31;1.53;;;1.27;;
11319;SDS011;5715;48.234;14.320;2023-12-20T07:43:19;1.90;;;1.80;;
11319;SDS011;5715;48.234;14.320;2023-12-20T07:46:07;1.57;;;1.47;;
11319;SDS011;5715;48.234;14.320;2023-12-20T07:48:55;1.40;;;1.40;;
11319;SDS011;5715;48.234;14.320;2023-12-20T07:51:43;1.53;;;1.43;;
11319;SDS011;5715;48.234;14.320;2023-12-20T07:54:31;1.57;;;1.47;;
11319;SDS011;5715;48.234;14.320;2023-12-20T07:57:18;0.90;;;0.90;;
11319;SDS011;5715;48.234;14.320;2023-12-20T08:00:06;1.80;;;1.70;;
11319;SDS011;5715;48.234;14.320;2023-12-20T08:02:54;2.20;;;1.17;;
11319;SDS011;5715;48.234;14.320;2023-12-20T08:05:42;1.00;;;0.93;;
11319;SDS011;5715;48.234;14.320;2023-12-20T08:08:30;1.57;;;1.47;;
11319;SDS011;5715;48.234;14.320;2023-12-20T08:11:17;1.20;;;1.10;;
11319;SDS011;5715;48.234;14.320;2023-12-20T08:14:05;0.83;;;0.83;;
11319;SDS011;5715;48.234;14.320;2023-12-20T08:16:53;1.97;;;1.43;;
11319;SDS011;5715;48.234;14.320;2023-12-20T08:19:40;1.50;;;1.40;;
11319;SDS011;5715;48.234;14.320;2023-12-20T08:22:28;17.83;;;1.93;;
11319;SDS011;5715;48.234;14.320;2023-12-20T08:25:16;0.70;;;0.70;;
11319;SDS011;5715;48.234;14.320;2023-12-20T08:28:03;1.33;;;1.30;;
11319;SDS011;5715;48.234;14.320;2023-12-20T08:30:52;1.33;;;1.23;;
11319;SDS011;5715;48.234;14.320;2023-12-20T08:33:40;0.90;;;0.90;;
11319;SDS011;5715;48.234;14.320;2023-12-20T08:36:28;2.30;;;1.20;;
11319;SDS011;5715;48.234;14.320;2023-12-20T08:39:16;0.90;;;0.90;;
11319;SDS011;5715;48.234;14.320;2023-12-20T08:42:04;1.33;;;1.20;;
11319;SDS011;5715;48.234;14.320;2023-12-20T08:44:52;0.70;;;0.70;;
11319;SDS011;5715;48.234;14.320;2023-12-20T08:47:39;1.23;;;1.20;;
11319;SDS011;5715;48.234;14.320;2023-12-20T08:50:28;0.93;;;0.93;;
11319;SDS011;5715;48.234;14.320;2023-12-20T08:53:16;1.13;;;1.07;;
11319;SDS011;5715;48.234;14.320;2023-12-20T08:56:04;1.00;;;1.00;;
11319;SDS011;5715;48.234;14.320;2023-12-20T08:58:52;1.30;;;1.20;;
11319;SDS011;5715;48.234;14.320;2023-12-20T09:01:40;4.53;;;1.77;;
11319;SDS011;5715;48.234;14.320;2023-12-20T09:04:28;1.17;;;1.13;;
11319;SDS011;5715;48.234;14.320;2023-12-20T09:10:14;2.20;;;1.40;;
11319;SDS011;5715;48.234;14.320;2023-12-20T09:13:05;1.87;;;1.77;;
11319;SDS011;5715;48.234;14.320;2023-12-20T09:15:52;1.60;;;1.50;;
11319;SDS011;5715;48.234;14.320;2023-12-20T09:18:43;1.00;;;1.00;;
11319;SDS011;5715;48.234;14.320;2023-12-20T09:21:31;2.57;;;1.17;;
11319;SDS011;5715;48.234;14.320;2023-12-20T09:24:18;1.30;;;1.20;;
11319;SDS011;5715;48.234;14.320;2023-12-20T09:27:06;1.20;;;1.10;;
11319;SDS011;5715;48.234;14.320;2023-12-20T09:29:54;1.17;;;1.07;;
11319;SDS011;5715;48.234;14.320;2023-12-20T09:32:41;0.80;;;0.80;;
11319;SDS011;5715;48.234;14.320;2023-12-20T09:35:32;1.37;;;1.27;;
11319;SDS011;5715;48.234;14.320;2023-12-20T09:38:20;1.43;;;1.33;;
11319;SDS011;5715;48.234;14.320;2023-12-20T09:41:09;1.60;;;1.27;;
11319;SDS011;5715;48.234;14.320;2023-12-20T09:43:57;1.00;;;1.00;;
11319;SDS011;5715;48.234;14.320;2023-12-20T09:46:49;1.17;;;1.13;;
11319;SDS011;5715;48.234;14.320;2023-12-20T09:49:39;1.43;;;1.23;;
11319;SDS011;5715;48.234;14.320;2023-12-20T09:52:29;1.40;;;1.30;;
11319;SDS011;5715;48.234;14.320;2023-12-20T09:55:19;1.60;;;1.50;;
11319;SDS011;5715;48.234;14.320;2023-12-20T09:58:08;1.93;;;1.83;;
11319;SDS011;5715;48.234;14.320;2023-12-20T10:00:56;2.00;;;1.80;;
11319;SDS011;5715;48.234;14.320;2023-12-20T10:03:44;1.27;;;1.17;;
11319;SDS011;5715;48.234;14.320;2023-12-20T10:06:33;1.33;;;1.23;;
11319;SDS011;5715;48.234;14.320;2023-12-20T10:09:20;1.03;;;1.03;;
11319;SDS011;5715;48.234;14.320;2023-12-20T10:12:08;1.10;;;1.10;;
11319;SDS011;5715;48.234;14.320;2023-12-20T10:14:57;1.57;;;1.47;;
11319;SDS011;5715;48.234;14.320;2023-12-20T10:17:45;3.47;;;3.27;;
11319;SDS011;5715;48.234;14.320;2023-12-20T10:20:36;1.37;;;1.13;;
11319;SDS011;5715;48.234;14.320;2023-12-20T10:23:24;1.33;;;1.23;;
11319;SDS011;5715;48.234;14.320;2023-12-20T10:26:19;1.90;;;1.47;;
11319;SDS011;5715;48.234;14.320;2023-12-20T10:29:11;1.37;;;1.27;;
11319;SDS011;5715;48.234;14.320;2023-12-20T10:32:00;1.67;;;1.57;;
11319;SDS011;5715;48.234;14.320;2023-12-20T10:35:14;1.37;;;1.33;;
11319;SDS011;5715;48.234;14.320;2023-12-20T10:38:03;1.00;;;1.00;;
11319;SDS011;5715;48.234;14.320;2023-12-20T10:40:54;1.30;;;1.20;;
11319;SDS011;5715;48.234;14.320;2023-12-20T10:43:46;18.53;;;1.43;;
11319;SDS011;5715;48.234;14.320;2023-12-20T10:46:34;5.50;;;1.40;;
11319;SDS011;5715;48.234;14.320;2023-12-20T10:49:22;1.70;;;1.57;;
11319;SDS011;5715;48.234;14.320;2023-12-20T10:52:12;0.90;;;0.90;;
11319;SDS011;5715;48.234;14.320;2023-12-20T10:55:00;1.80;;;1.10;;
11319;SDS011;5715;48.234;14.320;2023-12-20T10:57:49;1.20;;;1.20;;
11319;SDS011;5715;48.234;14.320;2023-12-20T11:00:56;0.80;;;0.80;;
11319;SDS011;5715;48.234;14.320;2023-12-20T11:03:52;1.33;;;1.23;;
11319;SDS011;5715;48.234;14.320;2023-12-20T11:06:56;1.60;;;1.50;;
11319;SDS011;5715;48.234;14.320;2023-12-20T11:10:55;0.93;;;0.93;;
11319;SDS011;5715;48.234;14.320;2023-12-20T11:13:17;0.90;;;0.90;;
11319;SDS011;5715;48.234;14.320;2023-12-20T11:16:21;2.03;;;1.93;;
11319;SDS011;5715;48.234;14.320;2023-12-20T11:19:11;1.77;;;1.20;;
11319;SDS011;5715;48.234;14.320;2023-12-20T11:22:03;0.77;;;0.77;;
11319;SDS011;5715;48.234;14.320;2023-12-20T11:24:53;0.93;;;0.93;;
11319;SDS011;5715;48.234;14.320;2023-12-20T11:27:42;1.00;;;0.93;;
11319;SDS011;5715;48.234;14.320;2023-12-20T11:30:51;1.00;;;1.00;;
11319;SDS011;5715;48.234;14.320;2023-12-20T11:33:43;1.47;;;1.30;;
11319;SDS011;5715;48.234;14.320;2023-12-20T11:36:35;0.90;;;0.90;;
11319;SDS011;5715;48.234;14.320;2023-12-20T11:39:22;0.87;;;0.87;;
11319;SDS011;5715;48.234;14.320;2023-12-20T11:42:12;0.90;;;0.90;;
11319;SDS011;5715;48.234;14.320;2023-12-20T11:45:01;1.83;;;0.90;;
11319;SDS011;5715;48.234;14.320;2023-12-20T11:47:50;1.13;;;1.03;;
11319;SDS011;5715;48.234;14.320;2023-12-20T11:50:41;0.80;;;0.80;;
11319;SDS011;5715;48.234;14.320;2023-12-20T11:53:29;0.93;;;0.93;;
11319;SDS011;5715;48.234;14.320;2023-12-20T11:56:18;1.37;;;1.20;;
11319;SDS011;5715;48.234;14.320;2023-12-20T11:59:07;0.83;;;0.83;;
11319;SDS011;5715;48.234;14.320;2023-12-20T12:02:11;0.90;;;0.90;;
11319;SDS011;5715;48.234;14.320;2023-12-20T12:04:59;0.83;;;0.83;;
11319;SDS011;5715;48.234;14.320;2023-12-20T12:07:47;0.80;;;0.80;;
11319;SDS011;5715;48.234;14.320;2023-12-20T12:10:35;1.00;;;1.00;;
11319;SDS011;5715;48.234;14.320;2023-12-20T12:13:23;1.00;;;1.00;;
11319;SDS011;5715;48.234;14.320;2023-12-20T12:16:17;1.20;;;1.20;;
11319;SDS011;5715;48.234;14.320;2023-12-20T12:19:07;1.43;;;1.10;;
11319;SDS011;5715;48.234;14.320;2023-12-20T12:22:07;1.47;;;1.37;;
11319;SDS011;5715;48.234;14.320;2023-12-20T12:25:12;0.93;;;0.93;;
11319;SDS011;5715;48.234;14.320;2023-12-20T12:28:01;0.90;;;0.90;;
11319;SDS011;5715;48.234;14.320;2023-12-20T12:30:58;0.80;;;0.80;;
11319;SDS011;5715;48.234;14.320;2023-12-20T12:33:46;1.30;;;1.20;;
11319;SDS011;5715;48.234;14.320;2023-12-20T12:36:34;0.90;;;0.90;;
11319;SDS011;5715;48.234;14.320;2023-12-20T12:39:22;1.13;;;1.07;;
11319;SDS011;5715;48.234;14.320;2023-12-20T12:42:13;1.27;;;1.00;;
11319;SDS011;5715;48.234;14.320;2023-12-20T12:45:01;3.00;;;2.90;;
11319;SDS011;5715;48.234;14.320;2023-12-20T12:47:49;1.07;;;1.07;;
11319;SDS011;5715;48.234;14.320;2023-12-20T12:50:36;0.77;;;0.77;;
11319;SDS011;5715;48.234;14.320;2023-12-20T12:53:25;8.43;;;1.43;;
11319;SDS011;5715;48.234;14.320;2023-12-20T12:56:13;1.00;;;1.00;;
11319;SDS011;5715;48.234;14.320;2023-12-20T12:59:02;0.70;;;0.70;;
11319;SDS011;5715;48.234;14.320;2023-12-20T13:01:50;0.90;;;0.90;;
11319;SDS011;5715;48.234;14.320;2023-12-20T13:04:37;1.00;;;1.00;;
11319;SDS011;5715;48.234;14.320;2023-12-20T13:07:25;1.10;;;1.10;;
11319;SDS011;5715;48.234;14.320;2023-12-20T13:10:13;0.87;;;0.87;;
11319;SDS011;5715;48.234;14.320;2023-12-20T13:13:03;1.30;;;1.23;;
11319;SDS011;5715;48.234;14.320;2023-12-20T13:15:51;0.90;;;0.90;;
11319;SDS011;5715;48.234;14.320;2023-12-20T13:18:42;0.93;;;0.93;;
11319;SDS011;5715;48.234;14.320;2023-12-20T13:21:29;1.20;;;1.20;;
11319;SDS011;5715;48.234;14.320;2023-12-20T13:24:17;1.67;;;1.57;;
11319;SDS011;5715;48.234;14.320;2023-12-20T13:27:05;1.30;;;1.00;;
11319;SDS011;5715;48.234;14.320;2023-12-20T13:29:53;9.67;;;4.47;;
11319;SDS011;5715;48.234;14.320;2023-12-20T13:32:40;3.97;;;2.63;;
11319;SDS011;5715;48.234;14.320;2023-12-20T13:35:28;3.57;;;2.87;;
11319;SDS011;5715;48.234;14.320;2023-12-20T13:38:16;2.53;;;2.33;;
11319;SDS011;5715;48.234;14.320;2023-12-20T13:41:04;5.70;;;3.53;;
11319;SDS011;5715;48.234;14.320;2023-12-20T13:43:51;5.20;;;4.17;;
11319;SDS011;5715;48.234;14.320;2023-12-20T13:46:40;3.97;;;2.67;;
11319;SDS011;5715;48.234;14.320;2023-12-20T13:49:28;1.23;;;1.13;;
11319;SDS011;5715;48.234;14.320;2023-12-20T13:52:16;1.80;;;1.53;;
11319;SDS011;5715;48.234;14.320;2023-12-20T13:55:03;2.27;;;1.70;;
11319;SDS011;5715;48.234;14.320;2023-12-20T13:57:54;3.07;;;1.80;;
11319;SDS011;5715;48.234;14.320;2023-12-20T14:00:43;2.07;;;1.97;;
11319;SDS011;5715;48.234;14.320;2023-12-20T14:03:31;4.47;;;3.87;;
11319;SDS011;5715;48.234;14.320;2023-12-20T14:06:18;2.90;;;2.43;;
11319;SDS011;5715;48.234;14.320;2023-12-20T14:09:06;3.17;;;2.27;;
11319;SDS011;5715;48.234;14.320;2023-12-20T14:11:54;4.50;;;3.30;;
11319;SDS011;5715;48.234;14.320;2023-12-20T14:14:42;3.47;;;2.27;;
11319;SDS011;5715;48.234;14.320;2023-12-20T14:17:31;2.83;;;2.47;;
11319;SDS011;5715;48.234;14.320;2023-12-20T14:20:19;6.73;;;2.27;;
11319;SDS011;5715;48.234;14.320;2023-12-20T14:23:07;2.83;;;2.63;;
11319;SDS011;5715;48.234;14.320;2023-12-20T14:25:59;2.27;;;1.37;;
11319;SDS011;5715;48.234;14.320;2023-12-20T14:28:47;0.97;;;0.97;;
11319;SDS011;5715;48.234;14.320;2023-12-20T14:31:34;1.43;;;1.33;;
11319;SDS011;5715;48.234;14.320;2023-12-20T14:34:23;1.03;;;1.03;;
11319;SDS011;5715;48.234;14.320;2023-12-20T14:37:11;1.03;;;1.03;;
11319;SDS011;5715;48.234;14.320;2023-12-20T14:39:59;0.90;;;0.90;;
11319;SDS011;5715;48.234;14.320;2023-12-20T14:42:47;1.27;;;1.17;;
11319;SDS011;5715;48.234;14.320;2023-12-20T14:45:35;1.20;;;1.10;;
11319;SDS011;5715;48.234;14.320;2023-12-20T14:48:24;0.97;;;0.97;;
11319;SDS011;5715;48.234;14.320;2023-12-20T14:51:14;1.47;;;1.37;;
11319;SDS011;5715;48.234;14.320;2023-12-20T14:54:02;4.40;;;1.57;;
11319;SDS011;5715;48.234;14.320;2023-12-20T14:56:49;0.87;;;0.87;;
11319;SDS011;5715;48.234;14.320;2023-12-20T14:59:37;1.77;;;1.67;;
11319;SDS011;5715;48.234;14.320;2023-12-20T15:02:25;1.13;;;1.10;;
11319;SDS011;5715;48.234;14.320;2023-12-20T15:05:12;0.80;;;0.80;;
11319;SDS011;5715;48.234;14.320;2023-12-20T15:08:01;1.10;;;0.90;;
11319;SDS011;5715;48.234;14.320;2023-12-20T15:10:49;1.17;;;1.07;;
11319;SDS011;5715;48.234;14.320;2023-12-20T15:13:37;2.40;;;0.87;;
11319;SDS011;5715;48.234;14.320;2023-12-20T15:16:25;1.03;;;1.00;;
11319;SDS011;5715;48.234;14.320;2023-12-20T15:19:12;1.00;;;1.00;;
11319;SDS011;5715;48.234;14.320;2023-12-20T15:22:00;1.77;;;1.67;;
11319;SDS011;5715;48.234;14.320;2023-12-20T15:24:48;1.10;;;1.10;;
11319;SDS011;5715;48.234;14.320;2023-12-20T15:27:38;1.33;;;1.13;;
11319;SDS011;5715;48.234;14.320;2023-12-20T15:30:26;1.20;;;1.10;;
11319;SDS011;5715;48.234;14.320;2023-12-20T15:33:13;0.70;;;0.70;;
11319;SDS011;5715;48.234;14.320;2023-12-20T15:36:02;1.10;;;1.00;;
11319;SDS011;5715;48.234;14.320;2023-12-20T15:38:50;0.90;;;0.90;;
11319;SDS011;5715;48.234;14.320;2023-12-20T15:41:37;0.77;;;0.77;;
11319;SDS011;5715;48.234;14.320;2023-12-20T15:44:25;0.70;;;0.70;;
11319;SDS011;5715;48.234;14.320;2023-12-20T15:47:12;1.20;;;1.10;;
11319;SDS011;5715;48.234;14.320;2023-12-20T15:50:00;2.67;;;1.47;;
11319;SDS011;5715;48.234;14.320;2023-12-20T15:52:48;0.80;;;0.80;;
11319;SDS011;5715;48.234;14.320;2023-12-20T15:55:35;1.10;;;1.00;;
11319;SDS011;5715;48.234;14.320;2023-12-20T15:58:23;0.90;;;0.90;;
11319;SDS011;5715;48.234;14.320;2023-12-20T16:01:11;1.47;;;1.17;;
11319;SDS011;5715;48.234;14.320;2023-12-20T16:03:58;1.70;;;1.07;;
11319;SDS011;5715;48.234;14.320;2023-12-20T16:06:46;1.47;;;1.37;;
11319;SDS011;5715;48.234;14.320;2023-12-20T16:09:34;1.30;;;1.20;;
11319;SDS011;5715;48.234;14.320;2023-12-20T16:12:21;3.97;;;1.93;;
11319;SDS011;5715;48.234;14.320;2023-12-20T16:15:09;1.70;;;1.47;;
11319;SDS011;5715;48.234;14.320;2023-12-20T16:17:57;2.30;;;1.80;;
11319;SDS011;5715;48.234;14.320;2023-12-20T16:20:45;1.47;;;1.00;;
11319;SDS011;5715;48.234;14.320;2023-12-20T16:23:33;1.37;;;0.97;;
11319;SDS011;5715;48.234;14.320;2023-12-20T16:26:20;0.93;;;0.93;;
11319;SDS011;5715;48.234;14.320;2023-12-20T16:29:08;1.03;;;1.00;;
11319;SDS011;5715;48.234;14.320;2023-12-20T16:31:56;0.90;;;0.90;;
11319;SDS011;5715;48.234;14.320;2023-12-20T16:34:44;3.13;;;1.00;;
11319;SDS011;5715;48.234;14.320;2023-12-20T16:37:31;1.07;;;0.83;;
11319;SDS011;5715;48.234;14.320;2023-12-20T16:40:24;0.90;;;0.90;;
11319;SDS011;5715;48.234;14.320;2023-12-20T16:43:12;1.60;;;1.50;;
11319;SDS011;5715;48.234;14.320;2023-12-20T16:45:59;1.30;;;1.20;;
11319;SDS011;5715;48.234;14.320;2023-12-20T16:48:50;2.33;;;2.13;;
11319;SDS011;5715;48.234;14.320;2023-12-20T16:51:38;1.00;;;0.90;;
11319;SDS011;5715;48.234;14.320;2023-12-20T16:54:26;1.30;;;1.20;;
11319;SDS011;5715;48.234;14.320;2023-12-20T16:57:15;0.60;;;0.60;;
11319;SDS011;5715;48.234;14.320;2023-12-20T17:00:05;1.07;;;1.00;;